sensor_id;sensor_type;location;lat;lon;timestamp;temperature;humidity
25320;DHT22;13256;49.012;8.610;2023-08-21T00:02:07;22.30;99.90
25320;DHT22;13256;49.012;8.610;2023-08-21T00:04:34;22.30;99.90
25320;DHT22;13256;49.012;8.610;2023-08-21T00:07:01;22.30;99.90
25320;DHT22;13256;49.012;8.610;2023-08-21T00:09:30;22.30;99.90
25320;DHT22;13256;49.012;8.610;2023-08-21T00:12:02;22.20;99.90
25320;DHT22;13256;49.012;8.610;2023-08-21T00:14:29;22.10;99.90
25320;DHT22;13256;49.012;8.610;2023-08-21T00:17:02;22.20;99.90
25320;DHT22;13256;49.012;8.610;2023-08-21T00:22:29;22.10;99.90
25320;DHT22;13256;49.012;8.610;2023-08-21T00:24:58;22.00;99.90
25320;DHT22;13256;49.012;8.610;2023-08-21T00:28:02;22.00;99.90
25320;DHT22;13256;49.012;8.610;2023-08-21T00:30:32;22.00;99.90
25320;DHT22;13256;49.012;8.610;2023-08-21T00:33:01;21.90;99.90
25320;DHT22;13256;49.012;8.610;2023-08-21T00:35:29;22.00;99.90
25320;DHT22;13256;49.012;8.610;2023-08-21T00:37:59;22.00;99.90
25320;DHT22;13256;49.012;8.610;2023-08-21T00:40:28;22.00;99.90
25320;DHT22;13256;49.012;8.610;2023-08-21T00:42:55;22.00;99.90
25320;DHT22;13256;49.012;8.610;2023-08-21T00:45:24;21.90;99.90
25320;DHT22;13256;49.012;8.610;2023-08-21T00:47:51;21.80;99.90
25320;DHT22;13256;49.012;8.610;2023-08-21T00:50:20;21.80;99.90
25320;DHT22;13256;49.012;8.610;2023-08-21T00:52:50;21.70;99.90
25320;DHT22;13256;49.012;8.610;2023-08-21T00:55:17;21.70;99.90
25320;DHT22;13256;49.012;8.610;2023-08-21T00:57:46;21.70;99.90
25320;DHT22;13256;49.012;8.610;2023-08-21T01:00:13;21.70;99.90
25320;DHT22;13256;49.012;8.610;2023-08-21T01:02:41;21.60;99.90
25320;DHT22;13256;49.012;8.610;2023-08-21T01:05:23;21.60;99.90
25320;DHT22;13256;49.012;8.610;2023-08-21T01:08:02;21.60;99.90
25320;DHT22;13256;49.012;8.610;2023-08-21T01:13:34;21.50;99.90
25320;DHT22;13256;49.012;8.610;2023-08-21T01:16:10;21.60;99.90
25320;DHT22;13256;49.012;8.610;2023-08-21T01:18:38;21.60;99.90
25320;DHT22;13256;49.012;8.610;2023-08-21T01:21:06;21.50;99.90
25320;DHT22;13256;49.012;8.610;2023-08-21T01:23:40;21.60;99.90
25320;DHT22;13256;49.012;8.610;2023-08-21T01:26:13;21.60;99.90
25320;DHT22;13256;49.012;8.610;2023-08-21T01:29:11;21.60;99.90
25320;DHT22;13256;49.012;8.610;2023-08-21T01:31:44;21.60;99.90
25320;DHT22;13256;49.012;8.610;2023-08-21T01:34:21;21.60;99.90
25320;DHT22;13256;49.012;8.610;2023-08-21T01:36:54;21.60;99.90
25320;DHT22;13256;49.012;8.610;2023-08-21T01:39:23;21.60;99.90
25320;DHT22;13256;49.012;8.610;2023-08-21T01:41:56;21.60;99.90
25320;DHT22;13256;49.012;8.610;2023-08-21T01:44:24;21.60;99.90
25320;DHT22;13256;49.012;8.610;2023-08-21T01:46:51;21.60;99.90
25320;DHT22;13256;49.012;8.610;2023-08-21T01:49:23;21.50;99.90
25320;DHT22;13256;49.012;8.610;2023-08-21T01:51:54;21.50;99.90
25320;DHT22;13256;49.012;8.610;2023-08-21T01:54:21;21.40;99.90
25320;DHT22;13256;49.012;8.610;2023-08-21T03:40:46;20.50;99.90
25320;DHT22;13256;49.012;8.610;2023-08-21T08:48:16;28.40;99.90
25320;DHT22;13256;49.012;8.610;2023-08-21T17:13:24;32.90;85.70
25320;DHT22;13256;49.012;8.610;2023-08-21T19:03:27;27.70;99.90
25320;DHT22;13256;49.012;8.610;2023-08-21T19:05:58;27.60;99.90
25320;DHT22;13256;49.012;8.610;2023-08-21T19:08:26;27.60;99.90
25320;DHT22;13256;49.012;8.610;2023-08-21T19:10:53;27.50;99.90
25320;DHT22;13256;49.012;8.610;2023-08-21T19:13:20;27.40;99.90
25320;DHT22;13256;49.012;8.610;2023-08-21T19:15:51;27.20;99.90
25320;DHT22;13256;49.012;8.610;2023-08-21T19:18:18;27.20;99.90
25320;DHT22;13256;49.012;8.610;2023-08-21T19:20:46;27.10;99.90
25320;DHT22;13256;49.012;8.610;2023-08-21T19:23:13;27.00;99.90
25320;DHT22;13256;49.012;8.610;2023-08-21T19:25:44;26.90;99.90
25320;DHT22;13256;49.012;8.610;2023-08-21T19:28:14;26.80;99.90
25320;DHT22;13256;49.012;8.610;2023-08-21T19:31:07;26.70;99.90
25320;DHT22;13256;49.012;8.610;2023-08-21T19:33:38;26.70;99.90
25320;DHT22;13256;49.012;8.610;2023-08-21T19:36:13;26.70;99.90
25320;DHT22;13256;49.012;8.610;2023-08-21T19:38:50;26.60;99.90
25320;DHT22;13256;49.012;8.610;2023-08-21T19:41:24;26.50;99.90
25320;DHT22;13256;49.012;8.610;2023-08-21T19:43:53;26.50;99.90
25320;DHT22;13256;49.012;8.610;2023-08-21T19:46:21;26.50;99.90
25320;DHT22;13256;49.012;8.610;2023-08-21T19:48:51;26.50;99.90
25320;DHT22;13256;49.012;8.610;2023-08-21T19:51:20;26.50;99.90
25320;DHT22;13256;49.012;8.610;2023-08-21T19:53:53;26.50;99.90
25320;DHT22;13256;49.012;8.610;2023-08-21T19:56:25;26.40;99.90
25320;DHT22;13256;49.012;8.610;2023-08-21T19:59:12;26.30;99.90
25320;DHT22;13256;49.012;8.610;2023-08-21T20:01:45;26.30;99.90
25320;DHT22;13256;49.012;8.610;2023-08-21T20:04:18;26.30;99.90
25320;DHT22;13256;49.012;8.610;2023-08-21T20:06:48;26.20;99.90
25320;DHT22;13256;49.012;8.610;2023-08-21T20:09:23;26.20;99.90
25320;DHT22;13256;49.012;8.610;2023-08-21T20:11:55;26.20;99.90
25320;DHT22;13256;49.012;8.610;2023-08-21T20:14:29;26.10;99.90
25320;DHT22;13256;49.012;8.610;2023-08-21T20:17:01;26.00;99.90
25320;DHT22;13256;49.012;8.610;2023-08-21T20:19:29;25.90;99.90
25320;DHT22;13256;49.012;8.610;2023-08-21T20:22:26;25.80;99.90
25320;DHT22;13256;49.012;8.610;2023-08-21T20:25:13;25.60;99.90
25320;DHT22;13256;49.012;8.610;2023-08-21T20:27:43;25.50;99.90
25320;DHT22;13256;49.012;8.610;2023-08-21T20:30:19;25.40;99.90
25320;DHT22;13256;49.012;8.610;2023-08-21T20:32:52;25.30;99.90
25320;DHT22;13256;49.012;8.610;2023-08-21T20:35:31;25.30;99.90
25320;DHT22;13256;49.012;8.610;2023-08-21T20:38:20;25.20;99.90
25320;DHT22;13256;49.012;8.610;2023-08-21T20:40:52;25.10;99.90
25320;DHT22;13256;49.012;8.610;2023-08-21T20:43:26;25.00;99.90
25320;DHT22;13256;49.012;8.610;2023-08-21T20:46:10;24.90;99.90
25320;DHT22;13256;49.012;8.610;2023-08-21T20:48:40;24.80;99.90
25320;DHT22;13256;49.012;8.610;2023-08-21T20:51:09;24.60;99.90
25320;DHT22;13256;49.012;8.610;2023-08-21T20:57:02;24.50;99.90
25320;DHT22;13256;49.012;8.610;2023-08-21T20:59:46;24.40;99.90
25320;DHT22;13256;49.012;8.610;2023-08-21T21:02:23;24.40;99.90
25320;DHT22;13256;49.012;8.610;2023-08-21T21:04:53;24.40;99.90
25320;DHT22;13256;49.012;8.610;2023-08-21T21:07:25;24.40;99.90
25320;DHT22;13256;49.012;8.610;2023-08-21T21:10:04;24.50;99.90
25320;DHT22;13256;49.012;8.610;2023-08-21T21:12:58;24.50;99.90
25320;DHT22;13256;49.012;8.610;2023-08-21T21:16:08;24.50;99.90
25320;DHT22;13256;49.012;8.610;2023-08-21T21:19:28;24.50;99.90
25320;DHT22;13256;49.012;8.610;2023-08-21T21:22:11;24.50;99.90
25320;DHT22;13256;49.012;8.610;2023-08-21T21:25:05;24.50;99.90
25320;DHT22;13256;49.012;8.610;2023-08-21T21:27:37;24.40;99.90
25320;DHT22;13256;49.012;8.610;2023-08-21T21:30:09;24.40;99.90
25320;DHT22;13256;49.012;8.610;2023-08-21T21:32:51;24.30;99.90
25320;DHT22;13256;49.012;8.610;2023-08-21T21:35:23;24.30;99.90
25320;DHT22;13256;49.012;8.610;2023-08-21T21:38:21;24.30;99.90
25320;DHT22;13256;49.012;8.610;2023-08-21T21:40:58;24.20;99.90
25320;DHT22;13256;49.012;8.610;2023-08-21T21:43:30;24.10;99.90
25320;DHT22;13256;49.012;8.610;2023-08-21T21:45:58;24.00;99.90
25320;DHT22;13256;49.012;8.610;2023-08-21T21:48:36;24.00;99.90
25320;DHT22;13256;49.012;8.610;2023-08-21T21:51:13;23.90;99.90
25320;DHT22;13256;49.012;8.610;2023-08-21T21:53:44;23.80;99.90
25320;DHT22;13256;49.012;8.610;2023-08-21T21:56:13;23.80;99.90
25320;DHT22;13256;49.012;8.610;2023-08-21T21:58:39;23.90;99.90
25320;DHT22;13256;49.012;8.610;2023-08-21T22:01:09;23.90;99.90
25320;DHT22;13256;49.012;8.610;2023-08-21T22:03:36;24.00;99.90
25320;DHT22;13256;49.012;8.610;2023-08-21T22:06:07;24.00;99.90
25320;DHT22;13256;49.012;8.610;2023-08-21T22:08:35;24.10;99.90
25320;DHT22;13256;49.012;8.610;2023-08-21T22:11:03;24.10;99.90
25320;DHT22;13256;49.012;8.610;2023-08-21T22:13:32;24.00;99.90
25320;DHT22;13256;49.012;8.610;2023-08-21T22:16:01;23.90;99.90
25320;DHT22;13256;49.012;8.610;2023-08-21T22:18:30;23.80;99.90
25320;DHT22;13256;49.012;8.610;2023-08-21T22:20:58;23.80;99.90
25320;DHT22;13256;49.012;8.610;2023-08-21T22:23:28;23.80;99.90
25320;DHT22;13256;49.012;8.610;2023-08-21T22:26:02;23.70;99.90
25320;DHT22;13256;49.012;8.610;2023-08-21T22:28:29;23.60;99.90
25320;DHT22;13256;49.012;8.610;2023-08-21T22:30:56;23.60;99.90
25320;DHT22;13256;49.012;8.610;2023-08-21T22:33:22;23.50;99.90
25320;DHT22;13256;49.012;8.610;2023-08-21T22:35:49;23.50;99.90
25320;DHT22;13256;49.012;8.610;2023-08-21T22:38:16;23.40;99.90
25320;DHT22;13256;49.012;8.610;2023-08-21T22:40:47;23.40;99.90
25320;DHT22;13256;49.012;8.610;2023-08-21T22:43:16;23.40;99.90
25320;DHT22;13256;49.012;8.610;2023-08-21T22:45:45;23.40;99.90
25320;DHT22;13256;49.012;8.610;2023-08-21T22:48:15;23.30;99.90
25320;DHT22;13256;49.012;8.610;2023-08-21T22:50:47;23.30;99.90
25320;DHT22;13256;49.012;8.610;2023-08-21T22:53:14;23.20;99.90
25320;DHT22;13256;49.012;8.610;2023-08-21T22:55:54;23.10;99.90
25320;DHT22;13256;49.012;8.610;2023-08-21T22:58:22;23.10;99.90
25320;DHT22;13256;49.012;8.610;2023-08-21T23:00:48;23.10;99.90
25320;DHT22;13256;49.012;8.610;2023-08-21T23:03:17;23.00;99.90
25320;DHT22;13256;49.012;8.610;2023-08-21T23:06:10;23.00;99.90
25320;DHT22;13256;49.012;8.610;2023-08-21T23:08:39;23.00;99.90
25320;DHT22;13256;49.012;8.610;2023-08-21T23:11:06;23.00;99.90
25320;DHT22;13256;49.012;8.610;2023-08-21T23:13:36;23.00;99.90
25320;DHT22;13256;49.012;8.610;2023-08-21T23:16:05;23.10;99.90
25320;DHT22;13256;49.012;8.610;2023-08-21T23:18:38;23.20;99.90
25320;DHT22;13256;49.012;8.610;2023-08-21T23:21:04;23.20;99.90
25320;DHT22;13256;49.012;8.610;2023-08-21T23:23:32;23.30;99.90
25320;DHT22;13256;49.012;8.610;2023-08-21T23:26:03;23.40;99.90
25320;DHT22;13256;49.012;8.610;2023-08-21T23:28:32;23.40;99.90
25320;DHT22;13256;49.012;8.610;2023-08-21T23:30:59;23.50;99.90
25320;DHT22;13256;49.012;8.610;2023-08-21T23:33:26;23.50;99.90
25320;DHT22;13256;49.012;8.610;2023-08-21T23:35:53;23.50;99.90
25320;DHT22;13256;49.012;8.610;2023-08-21T23:38:20;23.50;99.90
25320;DHT22;13256;49.012;8.610;2023-08-21T23:40:47;23.50;99.90
25320;DHT22;13256;49.012;8.610;2023-08-21T23:43:14;23.50;99.90
25320;DHT22;13256;49.012;8.610;2023-08-21T23:45:41;23.40;99.90
25320;DHT22;13256;49.012;8.610;2023-08-21T23:48:08;23.30;99.90
25320;DHT22;13256;49.012;8.610;2023-08-21T23:50:38;23.20;99.90
25320;DHT22;13256;49.012;8.610;2023-08-21T23:53:06;23.00;99.90
25320;DHT22;13256;49.012;8.610;2023-08-21T23:55:37;22.90;99.90
25320;DHT22;13256;49.012;8.610;2023-08-21T23:58:07;22.80;99.90
